sensor_id;sensor_type;location;lat;lon;timestamp;pressure;altitude;pressure_sealevel;temperature;humidity
63819;BME280;49970;54.976;73.248;2023-08-30T00:01:04;99139.66;;;17.80;59.17
63819;BME280;49970;54.976;73.248;2023-08-30T00:03:31;99113.97;;;17.71;59.18
63819;BME280;49970;54.976;73.248;2023-08-30T00:06:02;99128.97;;;17.80;59.25
63819;BME280;49970;54.976;73.248;2023-08-30T00:08:29;99127.31;;;17.79;59.45
63819;BME280;49970;54.976;73.248;2023-08-30T00:10:55;99111.94;;;17.73;59.60
63819;BME280;49970;54.976;73.248;2023-08-30T00:13:29;99130.19;;;17.78;59.41
63819;BME280;49970;54.976;73.248;2023-08-30T00:15:56;99122.13;;;17.78;59.53
63819;BME280;49970;54.976;73.248;2023-08-30T00:18:22;99114.63;;;17.73;59.53
63819;BME280;49970;54.976;73.248;2023-08-30T00:20:49;99095.53;;;17.76;59.55
63819;BME280;49970;54.976;73.248;2023-08-30T00:23:15;99093.88;;;17.75;59.72
63819;BME280;49970;54.976;73.248;2023-08-30T00:25:42;99091.09;;;17.68;59.91
63819;BME280;49970;54.976;73.248;2023-08-30T00:28:09;99084.34;;;17.73;60.14
63819;BME280;49970;54.976;73.248;2023-08-30T00:30:36;99078.13;;;17.72;60.21
63819;BME280;49970;54.976;73.248;2023-08-30T00:33:04;99068.28;;;17.73;60.65
63819;BME280;49970;54.976;73.248;2023-08-30T00:35:30;99075.28;;;17.74;60.70
63819;BME280;49970;54.976;73.248;2023-08-30T00:37:56;99064.56;;;17.74;60.71
63819;BME280;49970;54.976;73.248;2023-08-30T00:40:24;99051.09;;;17.67;60.42
63819;BME280;49970;54.976;73.248;2023-08-30T00:42:50;99065.69;;;17.79;60.65
63819;BME280;49970;54.976;73.248;2023-08-30T00:45:18;99071.72;;;17.81;60.36
63819;BME280;49970;54.976;73.248;2023-08-30T00:47:44;99042.88;;;17.68;60.54
63819;BME280;49970;54.976;73.248;2023-08-30T00:50:11;99051.94;;;17.82;60.69
63819;BME280;49970;54.976;73.248;2023-08-30T00:52:38;99056.94;;;17.85;60.49
63819;BME280;49970;54.976;73.248;2023-08-30T00:55:05;99048.19;;;17.77;60.15
63819;BME280;49970;54.976;73.248;2023-08-30T00:57:31;99063.94;;;17.86;60.32
63819;BME280;49970;54.976;73.248;2023-08-30T00:59:58;99063.94;;;17.86;60.11
63819;BME280;49970;54.976;73.248;2023-08-30T01:02:24;99069.31;;;17.86;60.19
63819;BME280;49970;54.976;73.248;2023-08-30T01:04:50;99056.75;;;17.87;60.10
63819;BME280;49970;54.976;73.248;2023-08-30T01:07:16;99060.03;;;17.89;60.26
63819;BME280;49970;54.976;73.248;2023-08-30T01:09:45;99075.94;;;17.90;60.21
63819;BME280;49970;54.976;73.248;2023-08-30T01:12:23;99044.94;;;17.81;59.85
63819;BME280;49970;54.976;73.248;2023-08-30T01:15:00;99064.88;;;17.94;59.90
63819;BME280;49970;54.976;73.248;2023-08-30T01:17:32;99061.53;;;17.91;59.83
63819;BME280;49970;54.976;73.248;2023-08-30T01:20:06;99071.53;;;17.98;59.94
63819;BME280;49970;54.976;73.248;2023-08-30T01:23:07;99074.19;;;17.98;59.85
63819;BME280;49970;54.976;73.248;2023-08-30T01:28:13;99051.75;;;17.99;59.80
63819;BME280;49970;54.976;73.248;2023-08-30T01:30:43;99056.38;;;17.90;59.57
63819;BME280;49970;54.976;73.248;2023-08-30T01:33:11;99060.69;;;18.06;59.50
63819;BME280;49970;54.976;73.248;2023-08-30T01:35:39;99061.69;;;18.05;59.31
63819;BME280;49970;54.976;73.248;2023-08-30T01:38:07;99075.75;;;18.07;59.49
63819;BME280;49970;54.976;73.248;2023-08-30T01:40:39;99046.91;;;18.09;58.99
63819;BME280;49970;54.976;73.248;2023-08-30T01:43:07;99055.59;;;18.11;59.36
63819;BME280;49970;54.976;73.248;2023-08-30T01:45:42;99042.69;;;18.00;59.36
63819;BME280;49970;54.976;73.248;2023-08-30T01:48:10;99055.75;;;18.09;59.44
63819;BME280;49970;54.976;73.248;2023-08-30T01:50:43;99059.72;;;18.13;59.17
63819;BME280;49970;54.976;73.248;2023-08-30T01:53:11;99074.81;;;18.14;59.07
63819;BME280;49970;54.976;73.248;2023-08-30T01:55:57;99049.84;;;18.14;59.38
63819;BME280;49970;54.976;73.248;2023-08-30T01:59:49;99043.13;;;18.03;59.17
63819;BME280;49970;54.976;73.248;2023-08-30T02:02:15;99056.44;;;18.11;59.52
63819;BME280;49970;54.976;73.248;2023-08-30T02:04:41;99047.34;;;18.12;59.19
63819;BME280;49970;54.976;73.248;2023-08-30T02:07:22;99048.00;;;18.14;59.43
63819;BME280;49970;54.976;73.248;2023-08-30T02:09:58;99039.53;;;18.11;59.07
63819;BME280;49970;54.976;73.248;2023-08-30T02:12:31;99055.66;;;18.17;58.88
63819;BME280;49970;54.976;73.248;2023-08-30T02:14:58;99052.59;;;18.21;59.48
63819;BME280;49970;54.976;73.248;2023-08-30T02:17:26;99056.94;;;18.22;59.26
63819;BME280;49970;54.976;73.248;2023-08-30T02:19:53;99067.66;;;18.22;59.35
63819;BME280;49970;54.976;73.248;2023-08-30T02:22:20;99071.16;;;18.22;59.86
63819;BME280;49970;54.976;73.248;2023-08-30T02:24:46;99060.13;;;18.10;59.63
63819;BME280;49970;54.976;73.248;2023-08-30T02:27:27;99063.53;;;18.19;59.88
63819;BME280;49970;54.976;73.248;2023-08-30T02:29:54;99062.50;;;18.20;59.56
63819;BME280;49970;54.976;73.248;2023-08-30T02:32:20;99054.47;;;18.20;59.81
63819;BME280;49970;54.976;73.248;2023-08-30T02:34:52;99053.63;;;18.20;60.09
63819;BME280;49970;54.976;73.248;2023-08-30T02:37:20;99050.31;;;18.17;59.99
63819;BME280;49970;54.976;73.248;2023-08-30T02:39:46;99050.97;;;18.20;60.06
63819;BME280;49970;54.976;73.248;2023-08-30T02:42:13;99047.25;;;18.21;60.11
63819;BME280;49970;54.976;73.248;2023-08-30T02:44:39;99035.50;;;18.22;60.20
63819;BME280;49970;54.976;73.248;2023-08-30T02:47:05;99032.25;;;18.26;60.24
63819;BME280;49970;54.976;73.248;2023-08-30T02:49:32;99043.63;;;18.28;60.27
63819;BME280;49970;54.976;73.248;2023-08-30T02:51:59;99024.03;;;18.28;60.04
63819;BME280;49970;54.976;73.248;2023-08-30T02:54:25;99026.78;;;18.34;60.15
63819;BME280;49970;54.976;73.248;2023-08-30T02:56:51;99024.16;;;18.41;60.13
63819;BME280;49970;54.976;73.248;2023-08-30T02:59:37;99007.50;;;18.46;60.43
63819;BME280;49970;54.976;73.248;2023-08-30T03:03:09;98997.44;;;18.48;60.83
63819;BME280;49970;54.976;73.248;2023-08-30T03:05:36;99003.66;;;18.55;60.39
63819;BME280;49970;54.976;73.248;2023-08-30T03:08:03;99009.28;;;18.60;59.90
63819;BME280;49970;54.976;73.248;2023-08-30T03:10:30;98998.16;;;18.63;60.17
63819;BME280;49970;54.976;73.248;2023-08-30T03:12:57;99025.78;;;18.78;59.90
63819;BME280;49970;54.976;73.248;2023-08-30T03:15:23;99017.78;;;18.85;59.77
63819;BME280;49970;54.976;73.248;2023-08-30T03:17:49;99020.59;;;18.98;59.63
63819;BME280;49970;54.976;73.248;2023-08-30T03:20:15;99024.56;;;19.09;59.39
63819;BME280;49970;54.976;73.248;2023-08-30T03:22:42;99021.53;;;19.19;59.24
63819;BME280;49970;54.976;73.248;2023-08-30T03:25:09;99028.22;;;19.29;58.74
63819;BME280;49970;54.976;73.248;2023-08-30T03:27:35;99021.81;;;19.24;59.08
63819;BME280;49970;54.976;73.248;2023-08-30T03:30:03;99021.00;;;19.30;58.49
63819;BME280;49970;54.976;73.248;2023-08-30T03:32:32;99021.22;;;19.28;59.16
63819;BME280;49970;54.976;73.248;2023-08-30T03:34:59;99016.03;;;19.27;58.80
63819;BME280;49970;54.976;73.248;2023-08-30T03:37:25;99017.88;;;19.26;59.18
63819;BME280;49970;54.976;73.248;2023-08-30T03:39:52;99017.44;;;19.23;59.53
63819;BME280;49970;54.976;73.248;2023-08-30T03:42:18;99003.59;;;19.19;59.37
63819;BME280;49970;54.976;73.248;2023-08-30T03:44:44;99007.50;;;19.16;59.87
63819;BME280;49970;54.976;73.248;2023-08-30T03:47:11;99000.47;;;19.15;59.44
63819;BME280;49970;54.976;73.248;2023-08-30T03:49:38;99007.72;;;19.15;60.20
63819;BME280;49970;54.976;73.248;2023-08-30T03:52:04;98992.59;;;19.14;60.10
63819;BME280;49970;54.976;73.248;2023-08-30T03:54:31;98994.88;;;19.10;59.96
63819;BME280;49970;54.976;73.248;2023-08-30T03:57:17;98983.50;;;19.08;60.35
63819;BME280;49970;54.976;73.248;2023-08-30T04:01:09;98982.44;;;19.03;60.10
63819;BME280;49970;54.976;73.248;2023-08-30T04:05:00;98972.69;;;18.95;60.32
63819;BME280;49970;54.976;73.248;2023-08-30T04:08:32;98988.81;;;19.02;60.84
63819;BME280;49970;54.976;73.248;2023-08-30T04:10:58;98970.66;;;19.04;59.63
63819;BME280;49970;54.976;73.248;2023-08-30T04:13:25;98979.94;;;19.01;59.28
63819;BME280;49970;54.976;73.248;2023-08-30T04:15:52;98999.66;;;19.15;58.04
63819;BME280;49970;54.976;73.248;2023-08-30T04:18:19;98998.84;;;19.21;57.88
63819;BME280;49970;54.976;73.248;2023-08-30T04:20:46;98981.97;;;19.27;58.13
63819;BME280;49970;54.976;73.248;2023-08-30T04:23:13;98994.81;;;19.32;58.80
63819;BME280;49970;54.976;73.248;2023-08-30T04:25:40;98986.69;;;19.25;58.47
63819;BME280;49970;54.976;73.248;2023-08-30T04:28:06;98996.03;;;19.29;58.76
63819;BME280;49970;54.976;73.248;2023-08-30T04:30:35;99000.56;;;19.29;58.46
63819;BME280;49970;54.976;73.248;2023-08-30T04:33:01;99013.63;;;19.38;58.28
63819;BME280;49970;54.976;73.248;2023-08-30T04:35:30;99002.50;;;19.41;59.47
63819;BME280;49970;54.976;73.248;2023-08-30T04:38:00;99004.16;;;19.42;58.88
63819;BME280;49970;54.976;73.248;2023-08-30T04:40:27;99012.63;;;19.46;58.69
63819;BME280;49970;54.976;73.248;2023-08-30T04:42:55;99028.53;;;19.48;59.06
63819;BME280;49970;54.976;73.248;2023-08-30T04:45:22;99030.63;;;19.46;58.83
63819;BME280;49970;54.976;73.248;2023-08-30T04:47:49;99039.28;;;19.48;59.05
63819;BME280;49970;54.976;73.248;2023-08-30T04:50:15;99041.59;;;19.51;59.10
63819;BME280;49970;54.976;73.248;2023-08-30T04:52:43;99045.09;;;19.51;59.41
63819;BME280;49970;54.976;73.248;2023-08-30T04:55:09;99048.19;;;19.48;59.89
63819;BME280;49970;54.976;73.248;2023-08-30T04:57:36;99042.19;;;19.46;60.04
63819;BME280;49970;54.976;73.248;2023-08-30T05:00:04;99054.84;;;19.52;60.51
63819;BME280;49970;54.976;73.248;2023-08-30T05:02:51;99061.84;;;19.53;60.46
63819;BME280;49970;54.976;73.248;2023-08-30T05:07:07;99065.75;;;19.51;59.67
63819;BME280;49970;54.976;73.248;2023-08-30T05:10:58;99066.78;;;19.50;59.57
63819;BME280;49970;54.976;73.248;2023-08-30T05:14:54;99065.38;;;19.54;60.80
63819;BME280;49970;54.976;73.248;2023-08-30T05:22:16;99076.50;;;19.51;61.93
63819;BME280;49970;54.976;73.248;2023-08-30T05:25:02;99085.38;;;19.51;61.33
63819;BME280;49970;54.976;73.248;2023-08-30T05:28:54;99080.59;;;19.47;61.98
63819;BME280;49970;54.976;73.248;2023-08-30T05:32:06;99072.94;;;19.44;61.91
63819;BME280;49970;54.976;73.248;2023-08-30T05:34:45;99094.47;;;19.50;61.07
63819;BME280;49970;54.976;73.248;2023-08-30T05:37:27;99070.50;;;19.49;61.61
63819;BME280;49970;54.976;73.248;2023-08-30T05:40:17;99073.66;;;19.59;62.02
63819;BME280;49970;54.976;73.248;2023-08-30T05:42:44;99083.00;;;19.63;61.57
63819;BME280;49970;54.976;73.248;2023-08-30T05:45:11;99066.50;;;19.66;60.41
63819;BME280;49970;54.976;73.248;2023-08-30T05:47:37;99063.19;;;19.64;60.49
63819;BME280;49970;54.976;73.248;2023-08-30T05:50:03;99082.63;;;19.66;59.79
63819;BME280;49970;54.976;73.248;2023-08-30T05:52:30;99072.91;;;19.65;58.82
63819;BME280;49970;54.976;73.248;2023-08-30T05:54:56;99061.97;;;19.67;59.80
63819;BME280;49970;54.976;73.248;2023-08-30T05:57:22;99059.47;;;19.65;59.58
63819;BME280;49970;54.976;73.248;2023-08-30T05:59:50;99054.94;;;19.65;59.84
63819;BME280;49970;54.976;73.248;2023-08-30T06:02:17;99056.78;;;19.65;60.32
63819;BME280;49970;54.976;73.248;2023-08-30T06:04:43;99059.28;;;19.67;59.83
63819;BME280;49970;54.976;73.248;2023-08-30T06:07:09;99036.31;;;19.64;59.75
63819;BME280;49970;54.976;73.248;2023-08-30T06:09:35;99022.88;;;19.64;59.00
63819;BME280;49970;54.976;73.248;2023-08-30T06:12:01;99031.34;;;19.61;59.47
63819;BME280;49970;54.976;73.248;2023-08-30T06:14:27;99019.94;;;19.59;59.50
63819;BME280;49970;54.976;73.248;2023-08-30T06:16:54;98997.84;;;19.57;59.39
63819;BME280;49970;54.976;73.248;2023-08-30T06:19:20;99001.53;;;19.56;59.34
63819;BME280;49970;54.976;73.248;2023-08-30T06:21:47;98985.78;;;19.46;58.66
63819;BME280;49970;54.976;73.248;2023-08-30T06:24:13;98984.78;;;19.54;58.19
63819;BME280;49970;54.976;73.248;2023-08-30T06:26:40;98965.13;;;19.47;58.62
63819;BME280;49970;54.976;73.248;2023-08-30T06:29:06;98960.78;;;19.46;58.49
63819;BME280;49970;54.976;73.248;2023-08-30T06:31:32;98939.53;;;19.51;58.43
63819;BME280;49970;54.976;73.248;2023-08-30T06:33:58;98939.09;;;19.47;58.70
63819;BME280;49970;54.976;73.248;2023-08-30T06:36:24;98953.34;;;19.48;59.04
63819;BME280;49970;54.976;73.248;2023-08-30T06:39:10;98936.63;;;19.46;58.55
63819;BME280;49970;54.976;73.248;2023-08-30T06:42:56;98925.06;;;19.52;58.84
63819;BME280;49970;54.976;73.248;2023-08-30T06:45:25;98881.22;;;19.31;58.50
63819;BME280;49970;54.976;73.248;2023-08-30T06:47:56;98907.78;;;19.61;58.17
63819;BME280;49970;54.976;73.248;2023-08-30T06:50:22;98903.91;;;19.70;57.79
63819;BME280;49970;54.976;73.248;2023-08-30T06:53:08;98899.38;;;19.77;58.43
63819;BME280;49970;54.976;73.248;2023-08-30T06:55:59;98903.72;;;19.85;58.66
63819;BME280;49970;54.976;73.248;2023-08-30T06:58:26;98897.72;;;19.89;57.52
63819;BME280;49970;54.976;73.248;2023-08-30T07:00:52;98893.00;;;19.92;57.36
63819;BME280;49970;54.976;73.248;2023-08-30T07:03:19;98897.13;;;20.01;57.94
63819;BME280;49970;54.976;73.248;2023-08-30T07:05:45;98892.41;;;20.03;57.36
63819;BME280;49970;54.976;73.248;2023-08-30T07:08:16;98898.78;;;20.02;58.27
63819;BME280;49970;54.976;73.248;2023-08-30T07:10:42;98909.56;;;20.08;58.42
63819;BME280;49970;54.976;73.248;2023-08-30T07:13:09;98883.28;;;20.04;58.01
63819;BME280;49970;54.976;73.248;2023-08-30T07:15:39;98888.66;;;20.10;58.42
63819;BME280;49970;54.976;73.248;2023-08-30T07:18:07;98894.88;;;20.18;57.77
63819;BME280;49970;54.976;73.248;2023-08-30T07:20:33;98889.09;;;20.14;58.08
63819;BME280;49970;54.976;73.248;2023-08-30T07:23:01;98901.91;;;20.19;57.70
63819;BME280;49970;54.976;73.248;2023-08-30T07:25:27;98896.34;;;20.20;57.87
63819;BME280;49970;54.976;73.248;2023-08-30T07:27:53;98903.38;;;20.21;57.48
63819;BME280;49970;54.976;73.248;2023-08-30T07:30:19;98897.78;;;20.23;57.61
63819;BME280;49970;54.976;73.248;2023-08-30T07:32:45;98887.22;;;20.21;57.53
63819;BME280;49970;54.976;73.248;2023-08-30T07:35:12;98892.19;;;20.18;56.76
63819;BME280;49970;54.976;73.248;2023-08-30T07:37:38;98893.63;;;20.27;57.03
63819;BME280;49970;54.976;73.248;2023-08-30T07:40:04;98886.84;;;20.24;56.66
63819;BME280;49970;54.976;73.248;2023-08-30T07:42:31;98902.97;;;20.37;56.54
63819;BME280;49970;54.976;73.248;2023-08-30T07:44:57;98899.03;;;20.40;56.38
63819;BME280;49970;54.976;73.248;2023-08-30T07:47:23;98894.06;;;20.37;57.00
63819;BME280;49970;54.976;73.248;2023-08-30T07:50:09;98902.97;;;20.44;56.85
63819;BME280;49970;54.976;73.248;2023-08-30T07:53:29;98905.84;;;20.43;56.85
63819;BME280;49970;54.976;73.248;2023-08-30T07:55:55;98912.28;;;20.42;56.64
63819;BME280;49970;54.976;73.248;2023-08-30T07:58:21;98917.88;;;20.40;57.33
63819;BME280;49970;54.976;73.248;2023-08-30T08:00:51;98915.38;;;20.38;57.08
63819;BME280;49970;54.976;73.248;2023-08-30T08:03:18;98918.69;;;20.40;57.22
63819;BME280;49970;54.976;73.248;2023-08-30T08:05:44;98888.25;;;20.27;57.02
63819;BME280;49970;54.976;73.248;2023-08-30T08:08:10;98902.56;;;20.40;57.98
63819;BME280;49970;54.976;73.248;2023-08-30T08:10:37;98877.31;;;20.35;57.84
63819;BME280;49970;54.976;73.248;2023-08-30T08:13:03;98875.84;;;20.39;57.80
63819;BME280;49970;54.976;73.248;2023-08-30T08:15:32;98887.03;;;20.43;57.34
63819;BME280;49970;54.976;73.248;2023-08-30T08:18:03;98869.84;;;20.44;57.97
63819;BME280;49970;54.976;73.248;2023-08-30T08:20:29;98858.09;;;20.45;57.94
63819;BME280;49970;54.976;73.248;2023-08-30T08:22:57;98873.59;;;20.56;57.82
63819;BME280;49970;54.976;73.248;2023-08-30T08:25:23;98864.47;;;20.44;58.09
63819;BME280;49970;54.976;73.248;2023-08-30T08:27:50;98858.91;;;20.58;58.64
63819;BME280;49970;54.976;73.248;2023-08-30T08:30:17;98882.06;;;20.73;58.28
63819;BME280;49970;54.976;73.248;2023-08-30T08:32:45;98873.78;;;20.74;58.46
63819;BME280;49970;54.976;73.248;2023-08-30T08:35:14;98859.91;;;20.77;57.98
63819;BME280;49970;54.976;73.248;2023-08-30T08:37:40;98853.91;;;20.82;58.22
63819;BME280;49970;54.976;73.248;2023-08-30T08:40:07;98858.22;;;20.89;58.13
63819;BME280;49970;54.976;73.248;2023-08-30T08:42:36;98863.59;;;20.96;58.01
63819;BME280;49970;54.976;73.248;2023-08-30T08:45:03;98867.53;;;21.00;58.22
63819;BME280;49970;54.976;73.248;2023-08-30T08:47:50;98862.97;;;21.01;57.99
63819;BME280;49970;54.976;73.248;2023-08-30T08:51:01;98869.38;;;21.00;58.82
63819;BME280;49970;54.976;73.248;2023-08-30T08:53:28;98870.22;;;21.00;58.41
63819;BME280;49970;54.976;73.248;2023-08-30T08:55:56;98874.97;;;20.98;58.16
63819;BME280;49970;54.976;73.248;2023-08-30T08:58:24;98873.31;;;20.97;58.07
63819;BME280;49970;54.976;73.248;2023-08-30T09:00:50;98865.06;;;20.92;58.12
63819;BME280;49970;54.976;73.248;2023-08-30T09:03:18;98871.91;;;20.95;58.08
63819;BME280;49970;54.976;73.248;2023-08-30T09:05:45;98855.56;;;20.83;58.10
63819;BME280;49970;54.976;73.248;2023-08-30T09:08:12;98885.13;;;20.89;57.77
63819;BME280;49970;54.976;73.248;2023-08-30T09:10:40;98890.13;;;20.86;57.79
63819;BME280;49970;54.976;73.248;2023-08-30T09:13:06;98921.38;;;20.87;58.43
63819;BME280;49970;54.976;73.248;2023-08-30T09:15:33;98938.16;;;20.82;59.37
63819;BME280;49970;54.976;73.248;2023-08-30T09:18:00;98938.97;;;20.76;59.68
63819;BME280;49970;54.976;73.248;2023-08-30T09:20:26;98943.13;;;20.72;59.75
63819;BME280;49970;54.976;73.248;2023-08-30T09:22:58;98947.91;;;20.70;59.39
63819;BME280;49970;54.976;73.248;2023-08-30T09:25:26;98947.69;;;20.72;58.72
63819;BME280;49970;54.976;73.248;2023-08-30T09:27:57;98943.16;;;20.66;58.50
63819;BME280;49970;54.976;73.248;2023-08-30T09:30:27;98949.75;;;20.70;59.14
63819;BME280;49970;54.976;73.248;2023-08-30T09:32:54;98952.03;;;20.66;58.56
63819;BME280;49970;54.976;73.248;2023-08-30T09:35:20;98956.78;;;20.64;58.65
63819;BME280;49970;54.976;73.248;2023-08-30T09:37:46;98950.16;;;20.60;59.12
63819;BME280;49970;54.976;73.248;2023-08-30T09:40:18;98954.09;;;20.51;59.51
63819;BME280;49970;54.976;73.248;2023-08-30T09:42:45;98969.78;;;20.47;59.84
63819;BME280;49970;54.976;73.248;2023-08-30T09:45:18;98966.06;;;20.42;59.74
63819;BME280;49970;54.976;73.248;2023-08-30T09:47:49;98965.88;;;20.36;60.17
63819;BME280;49970;54.976;73.248;2023-08-30T09:50:18;98954.66;;;20.26;60.75
63819;BME280;49970;54.976;73.248;2023-08-30T09:52:49;98976.16;;;20.26;61.20
63819;BME280;49970;54.976;73.248;2023-08-30T09:55:15;98968.09;;;20.20;61.04
63819;BME280;49970;54.976;73.248;2023-08-30T09:57:42;98977.41;;;20.17;61.40
63819;BME280;49970;54.976;73.248;2023-08-30T10:00:12;98975.09;;;20.07;62.00
63819;BME280;49970;54.976;73.248;2023-08-30T10:02:41;98981.31;;;20.08;62.22
63819;BME280;49970;54.976;73.248;2023-08-30T10:05:10;98989.16;;;20.03;62.10
63819;BME280;49970;54.976;73.248;2023-08-30T10:07:37;98969.03;;;19.85;62.38
63819;BME280;49970;54.976;73.248;2023-08-30T10:10:04;98976.03;;;19.80;63.14
63819;BME280;49970;54.976;73.248;2023-08-30T10:12:31;98993.41;;;19.77;64.10
63819;BME280;49970;54.976;73.248;2023-08-30T10:15:01;98985.31;;;19.71;66.40
63819;BME280;49970;54.976;73.248;2023-08-30T10:17:28;98985.28;;;19.64;67.10
63819;BME280;49970;54.976;73.248;2023-08-30T10:19:57;98990.59;;;19.57;70.58
63819;BME280;49970;54.976;73.248;2023-08-30T10:22:25;98989.28;;;19.47;70.47
63819;BME280;49970;54.976;73.248;2023-08-30T10:24:56;98993.00;;;19.46;72.01
63819;BME280;49970;54.976;73.248;2023-08-30T10:27:24;98975.75;;;19.27;74.39
63819;BME280;49970;54.976;73.248;2023-08-30T10:29:53;98997.06;;;19.28;75.52
63819;BME280;49970;54.976;73.248;2023-08-30T10:32:21;98988.50;;;19.18;75.98
63819;BME280;49970;54.976;73.248;2023-08-30T10:34:51;98980.50;;;18.97;77.26
63819;BME280;49970;54.976;73.248;2023-08-30T10:37:24;98982.91;;;18.85;77.59
63819;BME280;49970;54.976;73.248;2023-08-30T10:39:52;98992.34;;;18.81;79.13
63819;BME280;49970;54.976;73.248;2023-08-30T10:42:22;98996.59;;;18.69;79.93
63819;BME280;49970;54.976;73.248;2023-08-30T10:44:51;99005.63;;;18.67;80.88
63819;BME280;49970;54.976;73.248;2023-08-30T10:47:23;99007.00;;;18.57;80.88
63819;BME280;49970;54.976;73.248;2023-08-30T10:49:54;99011.84;;;18.47;80.78
63819;BME280;49970;54.976;73.248;2023-08-30T10:52:24;99011.38;;;18.43;80.79
63819;BME280;49970;54.976;73.248;2023-08-30T10:54:51;99007.19;;;18.34;81.33
63819;BME280;49970;54.976;73.248;2023-08-30T10:57:24;99003.78;;;18.25;81.49
63819;BME280;49970;54.976;73.248;2023-08-30T11:00:17;99003.47;;;18.13;81.26
63819;BME280;49970;54.976;73.248;2023-08-30T11:02:47;99009.91;;;17.98;80.91
63819;BME280;49970;54.976;73.248;2023-08-30T11:05:16;99020.78;;;17.96;81.74
63819;BME280;49970;54.976;73.248;2023-08-30T11:07:46;98999.75;;;17.78;83.01
63819;BME280;49970;54.976;73.248;2023-08-30T11:10:12;99021.66;;;17.82;83.22
63819;BME280;49970;54.976;73.248;2023-08-30T11:12:42;99029.22;;;17.78;82.57
63819;BME280;49970;54.976;73.248;2023-08-30T11:15:11;99039.94;;;17.78;81.57
63819;BME280;49970;54.976;73.248;2023-08-30T11:17:39;99035.69;;;17.69;81.39
63819;BME280;49970;54.976;73.248;2023-08-30T11:20:13;99040.19;;;17.68;81.46
63819;BME280;49970;54.976;73.248;2023-08-30T11:22:43;99054.72;;;17.74;81.76
63819;BME280;49970;54.976;73.248;2023-08-30T11:25:11;99067.41;;;17.72;81.72
63819;BME280;49970;54.976;73.248;2023-08-30T11:27:38;99053.28;;;17.63;81.71
63819;BME280;49970;54.976;73.248;2023-08-30T11:30:08;99078.88;;;17.66;82.45
63819;BME280;49970;54.976;73.248;2023-08-30T11:32:36;99059.03;;;17.60;81.46
63819;BME280;49970;54.976;73.248;2023-08-30T11:35:03;99037.41;;;17.47;81.49
63819;BME280;49970;54.976;73.248;2023-08-30T11:37:30;99060.44;;;17.56;80.77
63819;BME280;49970;54.976;73.248;2023-08-30T11:39:57;99057.28;;;17.53;80.57
63819;BME280;49970;54.976;73.248;2023-08-30T11:42:24;99036.59;;;17.47;81.44
63819;BME280;49970;54.976;73.248;2023-08-30T11:44:51;99043.63;;;17.48;81.54
63819;BME280;49970;54.976;73.248;2023-08-30T11:47:19;99040.56;;;17.36;81.56
63819;BME280;49970;54.976;73.248;2023-08-30T11:49:48;99033.56;;;17.35;82.37
63819;BME280;49970;54.976;73.248;2023-08-30T11:52:17;99039.91;;;17.34;83.33
63819;BME280;49970;54.976;73.248;2023-08-30T11:54:44;99033.09;;;17.31;83.27
63819;BME280;49970;54.976;73.248;2023-08-30T11:57:10;99023.47;;;17.22;83.71
63819;BME280;49970;54.976;73.248;2023-08-30T11:59:37;99035.47;;;17.26;83.90
63819;BME280;49970;54.976;73.248;2023-08-30T12:02:04;99021.81;;;17.21;84.30
63819;BME280;49970;54.976;73.248;2023-08-30T12:04:30;99020.78;;;17.22;84.90
63819;BME280;49970;54.976;73.248;2023-08-30T12:06:57;99019.53;;;17.18;85.01
63819;BME280;49970;54.976;73.248;2023-08-30T12:09:30;99004.25;;;17.04;85.59
63819;BME280;49970;54.976;73.248;2023-08-30T12:12:12;99009.53;;;17.12;86.17
63819;BME280;49970;54.976;73.248;2023-08-30T12:14:38;99008.25;;;17.08;86.83
63819;BME280;49970;54.976;73.248;2023-08-30T12:17:04;99003.44;;;17.03;87.53
63819;BME280;49970;54.976;73.248;2023-08-30T12:19:31;99002.59;;;17.03;87.45
63819;BME280;49970;54.976;73.248;2023-08-30T12:22:04;98999.81;;;16.96;88.10
63819;BME280;49970;54.976;73.248;2023-08-30T12:24:46;98989.59;;;16.85;89.13
63819;BME280;49970;54.976;73.248;2023-08-30T12:27:13;98986.97;;;16.77;89.52
63819;BME280;49970;54.976;73.248;2023-08-30T12:29:40;98991.50;;;16.76;90.08
63819;BME280;49970;54.976;73.248;2023-08-30T12:32:07;98968.00;;;16.63;90.65
63819;BME280;49970;54.976;73.248;2023-08-30T12:34:34;98952.34;;;16.60;91.40
63819;BME280;49970;54.976;73.248;2023-08-30T12:37:00;98953.66;;;16.41;91.86
63819;BME280;49970;54.976;73.248;2023-08-30T12:39:27;98955.03;;;16.37;92.70
63819;BME280;49970;54.976;73.248;2023-08-30T12:41:54;98905.47;;;16.12;92.79
63819;BME280;49970;54.976;73.248;2023-08-30T12:44:20;98939.84;;;16.15;93.15
63819;BME280;49970;54.976;73.248;2023-08-30T12:46:46;98909.03;;;15.81;93.65
63819;BME280;49970;54.976;73.248;2023-08-30T12:49:12;98903.59;;;15.66;93.93
63819;BME280;49970;54.976;73.248;2023-08-30T12:51:39;98931.09;;;15.75;94.35
63819;BME280;49970;54.976;73.248;2023-08-30T12:54:05;98889.44;;;15.58;94.10
63819;BME280;49970;54.976;73.248;2023-08-30T12:56:32;98911.63;;;15.58;94.75
63819;BME280;49970;54.976;73.248;2023-08-30T12:58:58;98907.66;;;15.54;94.94
63819;BME280;49970;54.976;73.248;2023-08-30T13:01:44;98904.50;;;15.51;95.37
63819;BME280;49970;54.976;73.248;2023-08-30T13:04:57;98905.81;;;15.55;95.02
63819;BME280;49970;54.976;73.248;2023-08-30T13:07:27;98898.66;;;15.55;94.72
63819;BME280;49970;54.976;73.248;2023-08-30T13:09:57;98902.78;;;15.58;94.86
63819;BME280;49970;54.976;73.248;2023-08-30T13:12:26;98896.09;;;15.62;94.97
63819;BME280;49970;54.976;73.248;2023-08-30T13:14:58;98893.28;;;15.63;94.78
63819;BME280;49970;54.976;73.248;2023-08-30T13:17:29;98880.91;;;15.62;94.77
63819;BME280;49970;54.976;73.248;2023-08-30T13:19:59;98889.44;;;15.66;94.78
63819;BME280;49970;54.976;73.248;2023-08-30T13:22:31;98878.75;;;15.66;94.63